KLWS/LWS METAR and TAF weather

Enter ICAO airport designator
Station Type Date Time Source
KLWS METAR 2020/04/04 20:56 UTC NOAA

KLWS 042056Z VRB06KT 10SM CLR 12/M03 A2972 RMK AO2 SLP069 T01171033 58035


Station Type Date Time Source
KLWS Decoded METAR 2020/04/04 20:56 UTC NOAA

LEWISTON NEZ PERCE CO AIRPORT , ID, United States (KLWS) 46-22N 117-01W 438M
Apr 04, 2020 - 04:56 PM EDT / 2020.04.04 2056 UTC
Wind: Variable at 7 MPH (6 KT):0
Visibility: 10 mile(s):0
Sky conditions: clear
Temperature: 53.1 F (11.7 C)
Dew Point: 26.1 F (-3.3 C)
Relative Humidity: 34%
Pressure (altimeter): 29.72 in. Hg (1006 hPa)
Pressure tendency: 0.10 inches (3.5 hPa) lower than three hours ago
ob: KLWS 042056Z VRB06KT 10SM CLR 12/M03 A2972 RMK AO2 SLP069 T01171033 58035
cycle: 21

Station Type Date Time Source
KLWS TAF 2020/04/04 18:39 UTC NOAA

TAF KLWS 041737Z 0418/0518 09005KT P6SM FEW080 OVC200
FM050000 09005KT P6SM OVC150
FM050400 08005KT P6SM VCSH BKN070 OVC100
FM050700 15005KT 6SM -RA BR OVC015
FM051500 07004KT P6SM VCSH SCT025 OVC050

Example: see airport list